Ratibor, Texas
Current Conditions -  °F | °C
As of 1:55 AM on Tuesday 21 Oct 2014 (Local Time) from KTPL Reporting Station
Clear Clear  
Wind Chill: 63°   Ceiling: Unl
Heat Index: 63°   Visibility: 10mi
Dew Point: 55°   Wind: 0mph
Humidity: 77%   Direction: NA
Pressure: 30.04"   Gusts: NA
Location:  31.0795°N, 97.3287°W
Report Text: KTPL 210655Z AUTO 00000KT 10SM CLR 17/13 A3004 RMK AO1
Loading
Personal Weather Stations






























Interactive Weather Map
Tropical Storm Tracking
New forecast layout! Learn more

10-Day Weather Forecast

Advertisements
Track Severe Weather on mobile